Main page
METAR-TAF:

METAR-TAF

Airports :

Multan, Pakistan

Multan International Airport

latitude: 30-12-12N, longitude: 71-25-09E, elevation: 122 m

Current weather observation

The report was made 1 hour and 7 minutes ago, at 09:53 UTC
Wind 6 kt from the Northwest
Temperature 23°C
Humidity 25%
Pressure 1021 hPa
Visibility: 7000 m
Few clouds at a height of 4000 ft
Scattered clouds at a height of 10000 ft
haze

METAR: OPMT 180953Z 31006KT 7000 HZ FEW040 SCT100 23/02 Q1021 NOSIG

Time: 16:00 (11:00 UTC)

Forecast

The report was made 12 hours and 55 minutes ago, at 22:05 UTC
Forecast valid from 18 at 00 UTC to 18 at 18 UTC
Wind 5 kt from the Northeast
Visibility: 5000 m
Few clouds at a height of 12000 ft
smoke
Probability 30% :
Temporary
from 18 at 00 UTC to 18 at 04 UTC
Wind kt from the North
Visibility: 2000 m
mist

TAF: OPMT 172205Z 1800/1818 05005KT 5000 FU FEW120 TN06/1801Z TX24/1810Z PROB30 TEMPO 1800/1804 00000KT 2000 BR NSC

Weather observations and forecasts of more than 4000 airports (METAR and TAF reports).

The available stations are represented by yellow and red dots on the map.

Hover mouse over dot to see the name of the station.

Then click to see weather observations and forecasts.

To change the map : click on the green buttons with a black cross to zoom in, on the green button with a dash to zoom out, or on the green arrows for adjacent maps.


METAR-TAF: